CheckWX is a tool to help pilots better visualize weather data.  It is not intended as a substitute for an official pre-flight weather briefing.

02:57:46 UTC

KGSO METAR
Piedmont Triad International Airport
Greensboro, North Carolina, USA
Current

1 hour ago

KGSO 230154Z 24005KT 10SM BKN120 22/21 A2992 RMK AO2 RAE08 SLP121 OCNL LTG DSNT SW CB DSNT SW P0000 T02220211 $
Observed
Jul-23 @ 01:54 UTC
Wind
  • 240° at 5 KTS
Visibility
10 SM
Flight Rules
VFR
Cloud Levels
  • Broken at 12,000' AGL
Temperature
22°C / 72°F
Dewpoint
21°C / 70°F
Humidity
94%
Altimeter
29.92" Hg
Pressure
1013.22 hPa
Current Rain
0.01"
Previous

2 hours ago

KGSO 230054Z 22007KT 10SM -RA FEW060 BKN090 OVC160 22/22 A2992 RMK AO2 TSE37 SLP121 TS MOV NE CB DSNT NE-E P0011 T02220217 $
Observed
Jul-23 @ 00:54 UTC
Wind
  • 220° at 7 KTS
Visibility
10 SM
Flight Rules
VFR
Conditions
Light Rain
Cloud Levels
  • Few at 6,000' AGL
  • Broken at 9,000' AGL
  • Overcast at 16,000' AGL
Temperature
22°C / 72°F
Dewpoint
22°C / 72°F
Humidity
100%
Altimeter
29.92" Hg
Pressure
1013.22 hPa
Current Rain
0.11"
Previous

2 hours ago

KGSO 230038Z 22004KT 9SM -RA FEW040 SCT070 BKN090 OVC130 22/21 A2992 RMK AO2 TSE37 TS MOV NE CB DSNT NE-E P0011 T02220211 $
Observed
Jul-23 @ 00:38 UTC
Wind
  • 220° at 4 KTS
Visibility
9 SM
Flight Rules
VFR
Conditions
Light Rain
Cloud Levels
  • Few at 4,000' AGL
  • Scattered at 7,000' AGL
  • Broken at 9,000' AGL
  • Overcast at 13,000' AGL
Temperature
22°C / 72°F
Dewpoint
21°C / 70°F
Humidity
94%
Altimeter
29.92" Hg
Pressure
1013.22 hPa
Current Rain
0.11"